Time;durP1;ratioP1;P1;durP2;ratioP2;P2;SDS_P1;SDS_P2;PMS_P1;PMS_P2;Temp;Humidity;BMP_temperature;BMP_pressure;BME280_temperature;BME280_humidity;BME280_pressure;Samples;Min_cycle;Max_cycle;Signal;HPM_P1;HPM_P2
2021/01/25 00:02:14;;;;;;;9.95;6.90;;;128.00;2252.80;;;;;;4914168;29;20043;-81
2021/01/25 00:04:40;;;;;;;9.80;7.18;;;103.20;2227.20;;;;;;4915198;29;20047;-88
2021/01/25 00:07:06;;;;;;;7.60;6.60;;;103.10;2227.20;;;;;;4915114;29;20028;-87
2021/01/25 00:09:32;;;;;;;6.47;5.70;;;102.80;2227.20;;;;;;4914305;29;20040;-84
2021/01/25 00:11:58;;;;;;;5.80;4.93;;;102.60;2227.20;;;;;;4915876;29;20020;-85
2021/01/25 00:14:24;;;;;;;6.15;5.32;;;102.40;2227.20;;;;;;4917321;29;20515;-82
2021/01/25 00:16:50;;;;;;;6.72;5.05;;;102.40;2227.20;;;;;;4921448;29;20382;-86
2021/01/25 00:19:16;;;;;;;6.85;4.90;;;77.70;2227.20;;;;;;4917496;29;20032;-86
2021/01/25 00:21:43;;;;;;;6.70;5.00;;;77.60;2227.20;;;;;;4920229;29;20421;-86
2021/01/25 00:24:09;;;;;;;4.35;3.78;;;77.60;2227.20;;;;;;4918879;29;20099;-87
2021/01/25 00:26:35;;;;;;;7.57;4.07;;;77.30;2227.20;;;;;;4918705;29;20466;-87
2021/01/25 00:29:03;;;;;;;5.53;3.80;;;77.20;2227.20;;;;;;4915639;29;20032;-86
2021/01/25 00:31:30;;;;;;;7.00;4.05;;;76.90;2227.20;;;;;;4921598;29;20385;-86
2021/01/25 00:33:55;;;;;;;4.75;4.05;;;76.80;2227.20;;;;;;4920591;29;20123;-86
2021/01/25 00:36:21;;;;;;;5.85;4.50;;;52.10;2227.20;;;;;;4919787;29;20107;-82
2021/01/25 00:38:47;;;;;;;6.50;4.53;;;52.00;2227.20;;;;;;4918911;29;20060;-82
2021/01/25 00:41:15;;;;;;;5.72;3.80;;;51.80;2227.20;;;;;;4923732;29;20032;-80
2021/01/25 00:43:44;;;;;;;6.30;4.25;;;51.60;2227.20;;;;;;4933931;29;20028;-81
2021/01/25 00:46:09;;;;;;;5.43;4.35;;;51.50;2227.20;;;;;;4940032;29;20013;-77
2021/01/25 00:48:35;;;;;;;5.72;4.30;;;51.40;2227.20;;;;;;4935650;29;20036;-77
2021/01/25 00:51:01;;;;;;;5.72;4.68;;;51.30;2227.20;;;;;;4937160;29;20024;-75
2021/01/25 00:53:26;;;;;;;6.53;4.63;;;51.20;2227.20;;;;;;4939740;29;20044;-80
2021/01/25 00:56:00;;;;;;;6.50;4.50;;;51.20;2227.20;;;;;;4908289;29;20111;-75
2021/01/25 00:58:28;;;;;;;4.90;4.00;;;26.50;2201.60;;;;;;4939850;29;20016;-80
2021/01/25 01:01:00;;;;;;;8.73;5.50;;;26.50;2201.60;;;;;;4920905;29;20040;-78
2021/01/25 01:03:26;;;;;;;10.38;5.78;;;26.50;2201.60;;;;;;4939506;29;20016;-79
2021/01/25 01:05:57;;;;;;;9.90;6.00;;;26.50;2201.60;;;;;;4939254;28;20028;-75
2021/01/25 01:08:35;;;;;;;14.15;7.38;;;26.30;2201.60;;;;;;4948570;28;20036;-74
2021/01/25 01:11:00;;;;;;;6.65;5.18;;;26.20;2201.60;;;;;;4939871;29;20019;-76
2021/01/25 01:13:26;;;;;;;6.53;5.07;;;26.20;2201.60;;;;;;4945013;29;20020;-78
2021/01/25 01:15:52;;;;;;;6.03;4.43;;;26.20;2201.60;;;;;;4941192;29;20032;-76
2021/01/25 01:18:20;;;;;;;7.55;4.60;;;26.10;2201.60;;;;;;4940469;29;20029;-74
2021/01/25 01:20:46;;;;;;;6.93;5.15;;;26.10;2201.60;;;;;;4941840;29;20036;-77
2021/01/25 01:23:16;;;;;;;7.32;5.55;;;26.10;2201.60;;;;;;4941035;29;20087;-75
2021/01/25 01:25:43;;;;;;;8.68;6.57;;;26.10;2201.60;;;;;;4939224;29;20032;-75
2021/01/25 01:28:21;;;;;;;8.80;6.90;;;25.90;2201.60;;;;;;4935948;29;20039;-75
2021/01/25 01:30:46;;;;;;;8.23;6.00;;;26.00;2201.60;;;;;;4917968;29;20012;-74
2021/01/25 01:33:12;;;;;;;7.82;6.18;;;26.10;2201.60;;;;;;4937360;29;20068;-75
2021/01/25 01:35:38;;;;;;;8.43;6.63;;;25.90;2201.60;;;;;;4940721;29;20023;-75
2021/01/25 01:38:03;;;;;;;9.27;6.38;;;25.90;2201.60;;;;;;4940468;29;20040;-74
2021/01/25 01:40:29;;;;;;;8.07;5.90;;;26.00;2201.60;;;;;;4940516;29;20115;-74
2021/01/25 01:42:55;;;;;;;11.68;7.05;;;25.90;2201.60;;;;;;4941624;29;20012;-75
2021/01/25 01:45:26;;;;;;;11.43;8.48;;;25.90;2201.60;;;;;;4935830;29;20004;-74
2021/01/25 01:47:54;;;;;;;13.50;8.45;;;25.90;2201.60;;;;;;4932810;29;20366;-77
2021/01/25 01:50:20;;;;;;;13.55;9.57;;;25.80;2201.60;;;;;;4933368;29;20036;-76
2021/01/25 01:52:48;;;;;;;13.18;9.65;;;25.70;2201.60;;;;;;4934785;29;20051;-73
2021/01/25 01:55:14;;;;;;;14.32;9.05;;;25.60;2201.60;;;;;;4943589;29;20035;-77
2021/01/25 01:57:41;;;;;;;14.90;9.77;;;25.60;2201.60;;;;;;4962423;29;20016;-75
2021/01/25 02:00:08;;;;;;;14.48;9.10;;;25.60;2201.60;;;;;;4949139;28;20072;-76
2021/01/25 02:02:34;;;;;;;20.17;9.85;;;25.60;2201.60;;;;;;4943427;29;20063;-75
2021/01/25 02:05:00;;;;;;;13.10;9.05;;;25.60;2201.60;;;;;;4941519;29;20014;-74
2021/01/25 02:07:29;;;;;;;15.20;10.00;;;25.60;2201.60;;;;;;4942482;28;20077;-77
2021/01/25 02:10:01;;;;;;;12.82;8.80;;;25.60;2201.60;;;;;;4938176;29;20076;-74
2021/01/25 02:12:27;;;;;;;12.43;8.45;;;0.90;2201.60;;;;;;4931468;29;20021;-75
2021/01/25 02:14:54;;;;;;;11.43;7.57;;;0.90;2201.60;;;;;;4939043;29;20040;-73
2021/01/25 02:17:20;;;;;;;16.23;9.10;;;0.90;2201.60;;;;;;4940713;29;20024;-78
2021/01/25 02:20:15;;;;;;;15.50;8.63;;;0.90;2201.60;;;;;;4923404;29;20044;-76
2021/01/25 02:23:00;;;;;;;11.80;8.10;;;0.90;2201.60;;;;;;4939588;29;20036;-78
2021/01/25 02:25:51;;;;;;;12.63;8.18;;;0.90;2201.60;;;;;;4938274;29;20016;-78
2021/01/25 02:28:17;;;;;;;10.00;6.95;;;25.60;2201.60;;;;;;4880126;29;20037;-78
2021/01/25 02:30:44;;;;;;;8.55;6.85;;;25.60;2201.60;;;;;;4881200;29;20052;-78
2021/01/25 02:33:12;;;;;;;9.07;6.75;;;25.60;2201.60;;;;;;4884147;29;20037;-78
2021/01/25 02:35:38;;;;;;;8.27;6.40;;;25.60;2201.60;;;;;;4860474;29;20045;-74
2021/01/25 02:38:13;;;;;;;8.15;6.38;;;25.70;2201.60;;;;;;4876463;29;20040;-73
2021/01/25 02:40:39;;;;;;;6.65;5.60;;;25.70;2201.60;;;;;;4874111;29;20088;-74
2021/01/25 02:43:06;;;;;;;8.75;6.40;;;25.70;2201.60;;;;;;4872972;29;20043;-73
2021/01/25 02:45:33;;;;;;;7.15;5.30;;;25.70;2201.60;;;;;;4873499;29;20034;-78
2021/01/25 02:47:59;;;;;;;6.57;5.03;;;25.80;2201.60;;;;;;4870178;29;20067;-75
2021/01/25 02:50:24;;;;;;;6.22;4.65;;;25.80;2201.60;;;;;;4872209;29;20068;-73
2021/01/25 02:52:50;;;;;;;6.90;5.43;;;25.80;2201.60;;;;;;4871697;29;20508;-73
2021/01/25 02:55:16;;;;;;;5.90;4.80;;;25.80;2201.60;;;;;;4868498;29;20182;-72
2021/01/25 02:57:42;;;;;;;6.30;4.63;;;25.80;2201.60;;;;;;4877198;29;20045;-73
2021/01/25 03:00:10;;;;;;;7.43;4.93;;;25.90;2201.60;;;;;;4877248;29;20042;-76
2021/01/25 03:02:36;;;;;;;6.28;4.75;;;25.90;2201.60;;;;;;4867120;29;20077;-80
2021/01/25 03:05:08;;;;;;;5.32;4.38;;;25.90;2201.60;;;;;;4894804;29;20096;-81
2021/01/25 03:07:34;;;;;;;6.57;4.72;;;26.00;2201.60;;;;;;4909965;29;20409;-73
2021/01/25 03:10:01;;;;;;;6.97;4.68;;;26.00;2201.60;;;;;;4927682;29;20032;-73
2021/01/25 03:12:32;;;;;;;6.00;4.60;;;26.00;2201.60;;;;;;4929349;29;20051;-74
2021/01/25 03:15:05;;;;;;;5.47;4.35;;;25.90;2201.60;;;;;;4933158;29;20032;-80
2021/01/25 03:17:31;;;;;;;5.25;4.05;;;25.90;2201.60;;;;;;4933255;29;20024;-74
2021/01/25 03:19:57;;;;;;;5.25;3.78;;;26.00;2201.60;;;;;;4931462;29;20052;-77
2021/01/25 03:22:22;;;;;;;5.20;4.10;;;26.00;2201.60;;;;;;4931247;29;20032;-81
2021/01/25 03:24:48;;;;;;;6.15;4.05;;;26.00;2201.60;;;;;;4928161;29;20020;-79
2021/01/25 03:27:14;;;;;;;4.95;4.32;;;26.00;2201.60;;;;;;4929828;29;20036;-78
2021/01/25 03:29:39;;;;;;;5.90;3.97;;;25.90;2201.60;;;;;;4932556;29;20059;-80
2021/01/25 03:32:06;;;;;;;5.07;4.10;;;26.00;2201.60;;;;;;4932302;29;20060;-83
2021/01/25 03:34:32;;;;;;;5.22;3.92;;;25.90;2201.60;;;;;;4926862;29;20047;-78
2021/01/25 03:36:58;;;;;;;6.47;4.00;;;25.90;2201.60;;;;;;4926920;29;20024;-77
2021/01/25 03:39:24;;;;;;;5.15;4.18;;;25.90;2201.60;;;;;;4923200;29;20089;-76
2021/01/25 03:41:50;;;;;;;4.95;4.10;;;25.90;2201.60;;;;;;4922884;29;20032;-80
2021/01/25 03:44:16;;;;;;;4.95;3.92;;;25.90;2201.60;;;;;;4920736;29;20482;-74
2021/01/25 03:46:46;;;;;;;5.63;3.80;;;25.90;2201.60;;;;;;4922685;29;20024;-74
2021/01/25 03:49:16;;;;;;;5.88;4.43;;;25.90;2201.60;;;;;;4920859;29;20486;-73
2021/01/25 03:51:42;;;;;;;5.00;4.00;;;25.90;2201.60;;;;;;4919558;29;20031;-73
2021/01/25 03:54:10;;;;;;;5.07;4.38;;;25.90;2201.60;;;;;;4919086;29;20040;-74
2021/01/25 03:56:35;;;;;;;6.35;4.25;;;25.90;2201.60;;;;;;4912661;29;20031;-74
2021/01/25 03:59:01;;;;;;;4.70;4.20;;;26.00;2201.60;;;;;;4917690;29;20032;-74
2021/01/25 04:01:27;;;;;;;6.13;4.88;;;25.90;2201.60;;;;;;4910205;29;20039;-74
2021/01/25 04:03:53;;;;;;;7.07;4.88;;;25.90;2201.60;;;;;;4918194;29;20024;-73
2021/01/25 04:06:18;;;;;;;5.50;4.90;;;25.90;2201.60;;;;;;4917643;29;20537;-74
2021/01/25 04:08:44;;;;;;;5.10;4.20;;;26.00;2201.60;;;;;;4912203;29;20017;-79
2021/01/25 04:11:10;;;;;;;5.63;4.80;;;26.00;2201.60;;;;;;4919588;29;20095;-77
2021/01/25 04:13:35;;;;;;;5.22;4.57;;;26.00;2201.60;;;;;;4919822;29;20095;-77
2021/01/25 04:16:01;;;;;;;5.18;4.18;;;26.00;2201.60;;;;;;4918617;29;20024;-74
2021/01/25 04:18:27;;;;;;;5.10;4.25;;;26.00;2201.60;;;;;;4918500;29;20067;-75
2021/01/25 04:20:52;;;;;;;5.20;4.68;;;25.90;2201.60;;;;;;4919234;29;20473;-79
2021/01/25 04:23:18;;;;;;;4.80;4.30;;;25.90;2201.60;;;;;;4919856;29;20566;-79
2021/01/25 04:25:44;;;;;;;5.85;4.68;;;25.90;2201.60;;;;;;4919688;29;20390;-77
2021/01/25 04:28:09;;;;;;;5.28;4.43;;;26.00;2201.60;;;;;;4918349;29;20386;-76
2021/01/25 04:30:35;;;;;;;6.50;5.32;;;26.00;2201.60;;;;;;4917353;29;20468;-73
2021/01/25 04:33:01;;;;;;;6.55;5.10;;;26.00;2201.60;;;;;;4918535;29;20039;-76
2021/01/25 04:35:26;;;;;;;7.13;6.10;;;26.00;2201.60;;;;;;4917243;29;20506;-78
2021/01/25 04:37:52;;;;;;;7.68;6.88;;;26.00;2201.60;;;;;;4918195;29;20053;-79
2021/01/25 04:40:18;;;;;;;7.63;5.63;;;26.00;2201.60;;;;;;4915204;29;20111;-77
2021/01/25 04:42:45;;;;;;;7.18;5.97;;;26.00;2201.60;;;;;;4919416;29;20024;-79
2021/01/25 04:45:11;;;;;;;7.78;6.55;;;26.00;2201.60;;;;;;4918443;29;20386;-79
2021/01/25 04:47:47;;;;;;;9.05;7.72;;;26.00;2201.60;;;;;;4918772;29;20028;-79
2021/01/25 04:50:17;;;;;;;12.70;8.90;;;26.20;2201.60;;;;;;4912168;29;20454;-79
2021/01/25 04:52:45;;;;;;;14.05;9.02;;;26.10;2201.60;;;;;;4916912;29;20048;-80
2021/01/25 04:55:11;;;;;;;19.20;12.40;;;26.00;2201.60;;;;;;4913932;29;20040;-74
2021/01/25 04:57:37;;;;;;;12.60;8.80;;;26.00;2201.60;;;;;;4915741;29;20052;-77
2021/01/25 05:00:09;;;;;;;11.68;8.45;;;26.00;2201.60;;;;;;4917212;29;20040;-75
2021/01/25 05:02:53;;;;;;;11.73;8.40;;;26.00;2201.60;;;;;;4919229;29;20024;-79
2021/01/25 05:05:19;;;;;;;13.80;10.52;;;26.10;2201.60;;;;;;4932073;29;20032;-74
2021/01/25 05:07:45;;;;;;;14.57;10.68;;;26.10;2201.60;;;;;;4943130;29;20032;-76
2021/01/25 05:10:14;;;;;;;10.70;8.20;;;26.10;2201.60;;;;;;4942325;29;20043;-81
2021/01/25 05:12:44;;;;;;;10.30;8.15;;;26.10;2201.60;;;;;;4942884;28;20057;-78
2021/01/25 05:15:22;;;;;;;11.20;8.80;;;26.10;2201.60;;;;;;4927846;29;20024;-81
2021/01/25 05:17:48;;;;;;;9.68;7.82;;;26.10;2201.60;;;;;;4943457;29;20023;-76
2021/01/25 05:20:21;;;;;;;11.63;9.63;;;26.00;2201.60;;;;;;4943315;29;20016;-77
2021/01/25 05:22:47;;;;;;;11.50;9.65;;;26.10;2201.60;;;;;;4927992;29;20027;-74
2021/01/25 05:25:26;;;;;;;11.82;9.80;;;26.00;2201.60;;;;;;4917796;29;20032;-75
2021/01/25 05:27:52;;;;;;;14.10;10.27;;;26.10;2201.60;;;;;;4928678;29;20092;-76
2021/01/25 05:30:18;;;;;;;12.20;9.88;;;26.10;2201.60;;;;;;4928176;29;20044;-73
2021/01/25 05:32:45;;;;;;;15.20;10.73;;;26.10;2201.60;;;;;;4916756;29;20082;-73
2021/01/25 05:35:11;;;;;;;13.75;10.52;;;26.10;2201.60;;;;;;4915733;29;20040;-73
2021/01/25 05:37:39;;;;;;;12.23;10.50;;;26.20;2201.60;;;;;;4915772;29;20084;-74
2021/01/25 05:40:06;;;;;;;15.35;12.13;;;26.10;2201.60;;;;;;4914145;29;20032;-71
2021/01/25 05:42:33;;;;;;;17.10;11.93;;;26.10;2201.60;;;;;;4918345;29;20386;-78
2021/01/25 05:45:42;;;;;;;17.05;12.25;;;26.10;2201.60;;;;;;4935570;29;20088;-79
2021/01/25 05:48:12;;;;;;;14.32;10.48;;;26.10;2201.60;;;;;;4935695;29;20037;-74
2021/01/25 05:50:42;;;;;;;20.23;13.95;;;26.00;2201.60;;;;;;4930625;29;20056;-79
2021/01/25 05:53:24;;;;;;;21.67;15.07;;;26.00;2201.60;;;;;;4927134;29;20143;-78
2021/01/25 05:55:50;;;;;;;17.15;11.35;;;26.00;2201.60;;;;;;4916656;29;20067;-79
2021/01/25 05:58:16;;;;;;;19.17;13.00;;;26.00;2201.60;;;;;;4906738;29;20036;-76
2021/01/25 06:00:42;;;;;;;17.40;13.55;;;25.90;2201.60;;;;;;4903318;29;20028;-80
2021/01/25 06:03:09;;;;;;;22.73;14.45;;;26.00;2201.60;;;;;;4911220;29;20027;-77
2021/01/25 06:05:40;;;;;;;17.60;12.02;;;26.00;2201.60;;;;;;4906486;29;20024;-78
2021/01/25 06:08:43;;;;;;;15.60;10.88;;;26.10;2201.60;;;;;;4905004;29;20123;-76
2021/01/25 06:11:16;;;;;;;13.40;10.35;;;26.10;2201.60;;;;;;4905235;29;20043;-77
2021/01/25 06:13:51;;;;;;;23.40;14.63;;;26.10;2201.60;;;;;;4915913;29;20024;-76
2021/01/25 06:16:22;;;;;;;15.55;10.10;;;26.10;2201.60;;;;;;4916819;29;20073;-77
2021/01/25 06:18:48;;;;;;;14.82;10.52;;;26.20;2201.60;;;;;;4918825;29;20020;-77
2021/01/25 06:21:20;;;;;;;16.08;10.45;;;26.20;2201.60;;;;;;4917955;29;20032;-79
2021/01/25 06:23:46;;;;;;;16.73;9.82;;;26.20;2201.60;;;;;;4926082;29;20032;-78
2021/01/25 06:26:13;;;;;;;12.82;9.05;;;26.20;2201.60;;;;;;4918055;29;20689;-77
2021/01/25 06:28:41;;;;;;;10.68;9.00;;;26.10;2201.60;;;;;;4919823;29;20394;-79
2021/01/25 06:31:09;;;;;;;12.60;10.38;;;26.20;2201.60;;;;;;4918874;29;20031;-77
2021/01/25 06:33:38;;;;;;;12.18;7.80;;;26.20;2201.60;;;;;;4918756;29;20036;-78
2021/01/25 06:36:09;;;;;;;15.50;9.55;;;26.20;2201.60;;;;;;4918870;29;20032;-78
2021/01/25 06:38:36;;;;;;;16.65;12.15;;;26.20;2201.60;;;;;;4907175;29;20367;-77
2021/01/25 06:41:10;;;;;;;14.73;11.15;;;26.20;2201.60;;;;;;4915933;29;20028;-77
2021/01/25 06:43:44;;;;;;;26.85;18.50;;;26.20;2201.60;;;;;;4918281;29;20111;-76
2021/01/25 06:46:14;;;;;;;18.30;13.18;;;26.20;2201.60;;;;;;4923128;29;20091;-83
2021/01/25 06:48:40;;;;;;;15.68;11.50;;;26.20;2201.60;;;;;;4934481;29;20027;-85
2021/01/25 06:51:08;;;;;;;12.07;9.20;;;26.30;2201.60;;;;;;4931091;29;20032;-84
2021/01/25 06:53:38;;;;;;;13.82;10.60;;;26.30;2201.60;;;;;;4931120;29;20083;-83
2021/01/25 06:56:05;;;;;;;12.63;8.98;;;26.40;2201.60;;;;;;4928039;29;20065;-76
2021/01/25 06:58:31;;;;;;;15.55;10.93;;;26.40;2201.60;;;;;;4923458;29;20035;-74
2021/01/25 07:01:05;;;;;;;11.88;8.98;;;26.50;2201.60;;;;;;4918190;29;20127;-79
2021/01/25 07:03:44;;;;;;;9.23;7.50;;;51.20;2227.20;;;;;;4918339;29;20498;-79
2021/01/25 07:06:14;;;;;;;13.80;9.85;;;51.20;2227.20;;;;;;4915179;29;20024;-75
2021/01/25 07:08:50;;;;;;;12.55;8.88;;;51.30;2227.20;;;;;;4891058;29;20036;-74
2021/01/25 07:11:16;;;;;;;10.00;8.10;;;51.30;2227.20;;;;;;4910391;29;20024;-78
2021/01/25 07:13:52;;;;;;;9.18;7.20;;;51.30;2227.20;;;;;;4923745;29;20032;-81
2021/01/25 07:16:18;;;;;;;11.10;7.03;;;51.40;2227.20;;;;;;4934728;29;20027;-79
2021/01/25 07:18:44;;;;;;;10.57;6.60;;;51.40;2227.20;;;;;;4913756;29;20469;-76
2021/01/25 07:21:13;;;;;;;7.82;6.00;;;51.40;2227.20;;;;;;4913184;29;20047;-80
2021/01/25 07:23:53;;;;;;;9.77;5.53;;;51.50;2227.20;;;;;;4930943;29;20087;-88
2021/01/25 07:26:18;;;;;;;11.57;8.07;;;51.60;2227.20;;;;;;4931447;29;20512;-85
2021/01/25 07:28:46;;;;;;;20.92;15.05;;;51.60;2227.20;;;;;;4927873;29;20044;-83
2021/01/25 07:31:12;;;;;;;18.65;15.63;;;51.70;2227.20;;;;;;4927295;29;20044;-90
2021/01/25 07:33:38;;;;;;;9.57;7.45;;;51.90;2227.20;;;;;;4927153;29;20032;-89
2021/01/25 07:36:05;;;;;;;7.93;5.60;;;52.00;2227.20;;;;;;4921780;29;20047;-91
2021/01/25 07:38:30;;;;;;;10.10;5.65;;;76.80;2227.20;;;;;;4922448;29;20038;-80
2021/01/25 07:40:58;;;;;;;6.15;4.95;;;76.90;2227.20;;;;;;4920196;29;20101;-90
2021/01/25 07:43:29;;;;;;;7.10;4.90;;;77.10;2227.20;;;;;;4902718;29;20028;-86
2021/01/25 07:46:09;;;;;;;10.35;8.02;;;77.70;2227.20;;;;;;4915689;29;20020;-88
2021/01/25 07:48:50;;;;;;;6.78;5.85;;;102.40;2227.20;;;;;;4916210;29;20431;-88
2021/01/25 07:51:19;;;;;;;5.95;5.03;;;102.50;2227.20;;;;;;4908120;29;20482;-88
2021/01/25 07:53:45;;;;;;;5.53;4.97;;;103.30;2227.20;;;;;;4913961;29;20498;-88
2021/01/25 07:56:18;;;;;;;5.78;4.32;;;128.40;2252.80;;;;;;4913247;29;20062;-88
2021/01/25 07:58:46;;;;;;;52.70;31.75;;;128.50;2252.80;;;;;;4911019;29;20035;-89
2021/01/25 08:01:25;;;;;;;81.25;49.47;;;128.10;2252.80;;;;;;4910309;29;20476;-76
2021/01/25 08:03:54;;;;;;;108.68;65.45;;;128.40;2252.80;;;;;;4919040;29;20055;-75
2021/01/25 08:06:20;;;;;;;77.35;46.70;;;128.70;2252.80;;;;;;4914111;29;20028;-78
2021/01/25 08:08:47;;;;;;;72.97;52.42;;;128.90;2252.80;;;;;;4909299;29;20036;-74
2021/01/25 08:11:14;;;;;;;162.27;108.93;;;153.80;2252.80;;;;;;4910351;29;20043;-80
2021/01/25 08:13:54;;;;;;;64.35;51.63;;;153.70;2227.20;;;;;;4913908;29;20036;-80
2021/01/25 08:16:23;;;;;;;12.50;9.90;;;153.60;2252.80;;;;;;4912629;29;20107;-78
2021/01/25 08:19:02;;;;;;;14.43;13.07;;;154.00;2252.80;;;;;;4913438;29;20027;-78
2021/01/25 08:21:34;;;;;;;138.18;122.95;;;154.00;2252.80;;;;;;4895667;29;20036;-85
2021/01/25 08:24:03;;;;;;;16.20;10.90;;;154.00;2227.20;;;;;;4910892;29;20394;-82
2021/01/25 08:26:30;;;;;;;7.45;5.68;;;154.20;2201.60;;;;;;4897322;29;20414;-89
2021/01/25 08:29:05;;;;;;;74.70;52.78;;;154.50;2201.60;;;;;;4911246;29;20035;-83
2021/01/25 08:31:35;;;;;;;15.55;13.95;;;154.10;2176.00;;;;;;4909671;29;20031;-86
2021/01/25 08:34:05;;;;;;;11.25;7.88;;;154.10;2201.60;;;;;;4913232;29;20037;-89
2021/01/25 08:36:35;;;;;;;7.80;5.18;;;154.10;2201.60;;;;;;4914039;29;20024;-82
2021/01/25 08:39:13;;;;;;;10.38;7.20;;;153.80;2150.40;;;;;;4915790;29;20024;-87
2021/01/25 08:41:48;;;;;;;11.35;8.07;;;153.80;2201.60;;;;;;4915980;29;20567;-83
2021/01/25 08:44:16;;;;;;;13.32;11.93;;;153.60;2201.60;;;;;;4916355;29;20119;-84
2021/01/25 08:46:43;;;;;;;10.32;7.15;;;128.50;2252.80;;;;;;4917624;29;20478;-86
2021/01/25 08:49:22;;;;;;;10.10;6.75;;;128.30;2252.80;;;;;;4918590;29;20032;-77
2021/01/25 08:52:01;;;;;;;8.88;5.63;;;128.00;2252.80;;;;;;4917716;29;20032;-91
2021/01/25 08:54:30;;;;;;;13.63;8.80;;;103.20;2227.20;;;;;;4925674;29;20088;-87
2021/01/25 08:56:56;;;;;;;14.15;9.60;;;103.10;2227.20;;;;;;4916979;29;20024;-85
2021/01/25 08:59:34;;;;;;;11.25;7.43;;;103.10;2227.20;;;;;;4917901;29;20088;-83
2021/01/25 09:02:10;;;;;;;7.50;5.30;;;102.90;2227.20;;;;;;4918074;29;20028;-82
2021/01/25 09:04:36;;;;;;;9.15;5.50;;;102.90;2227.20;;;;;;4918297;29;20036;-89
2021/01/25 09:07:08;;;;;;;7.68;5.25;;;102.80;2227.20;;;;;;4918466;29;20542;-86
2021/01/25 09:09:34;;;;;;;9.38;6.18;;;102.60;2227.20;;;;;;4911076;29;20032;-74
2021/01/25 09:12:02;;;;;;;7.88;5.40;;;102.60;2227.20;;;;;;4917199;29;20497;-74
2021/01/25 09:14:27;;;;;;;8.13;5.25;;;102.60;2227.20;;;;;;4917063;29;20143;-87
2021/01/25 09:16:53;;;;;;;7.00;4.75;;;102.60;2227.20;;;;;;4917893;29;20076;-88
2021/01/25 09:19:18;;;;;;;7.40;4.57;;;102.70;2227.20;;;;;;4916623;29;20478;-76
2021/01/25 09:21:44;;;;;;;9.70;5.75;;;102.60;2227.20;;;;;;4917003;29;20505;-74
2021/01/25 09:24:10;;;;;;;9.60;5.63;;;102.60;2227.20;;;;;;4915574;29;20028;-81
2021/01/25 09:26:36;;;;;;;7.82;5.22;;;102.70;2227.20;;;;;;4923343;29;20028;-82
2021/01/25 09:29:02;;;;;;;7.55;6.30;;;102.70;2227.20;;;;;;4914844;29;20398;-79
2021/01/25 09:31:29;;;;;;;5.95;4.35;;;102.70;2227.20;;;;;;4915562;29;20028;-87
2021/01/25 09:33:56;;;;;;;7.63;5.80;;;102.70;2227.20;;;;;;4918198;29;20064;-86
2021/01/25 09:36:21;;;;;;;50.10;31.70;;;102.70;2227.20;;;;;;4917509;29;20504;-84
2021/01/25 09:38:47;;;;;;;25.42;22.95;;;102.70;2227.20;;;;;;4915487;29;20040;-76
2021/01/25 09:41:13;;;;;;;8.25;6.32;;;102.70;2227.20;;;;;;4896972;29;20524;-76
2021/01/25 09:43:39;;;;;;;5.00;3.42;;;102.70;2227.20;;;;;;4914818;29;20080;-75
2021/01/25 09:46:04;;;;;;;19.65;17.17;;;102.70;2227.20;;;;;;4912181;29;20024;-72
2021/01/25 09:48:30;;;;;;;11.98;7.75;;;102.70;2227.20;;;;;;4909017;29;20040;-78
2021/01/25 09:50:56;;;;;;;10.15;6.65;;;102.80;2227.20;;;;;;4919037;29;20100;-78
2021/01/25 09:53:22;;;;;;;13.82;8.18;;;102.80;2227.20;;;;;;4917970;29;20063;-75
2021/01/25 09:55:50;;;;;;;25.25;18.83;;;102.90;2227.20;;;;;;4917466;29;20036;-77
2021/01/25 09:58:16;;;;;;;22.20;16.48;;;102.90;2227.20;;;;;;4917616;29;20031;-75
2021/01/25 10:00:42;;;;;;;11.32;9.05;;;102.80;2227.20;;;;;;4913010;29;20039;-85
2021/01/25 10:03:08;;;;;;;17.55;10.57;;;102.90;2227.20;;;;;;4915272;29;20028;-75
2021/01/25 10:05:34;;;;;;;15.27;8.68;;;103.00;2227.20;;;;;;4916761;29;20955;-76
2021/01/25 10:08:01;;;;;;;9.73;5.50;;;102.50;2227.20;;;;;;4921498;29;20028;-84
2021/01/25 10:10:28;;;;;;;12.18;6.43;;;103.00;2227.20;;;;;;4926148;29;20028;-90
2021/01/25 10:12:55;;;;;;;12.35;8.52;;;103.10;2227.20;;;;;;4926042;29;20076;-91
2021/01/25 10:15:22;;;;;;;36.97;24.10;;;103.10;2227.20;;;;;;4928497;29;20123;-93
2021/01/25 10:17:48;;;;;;;25.95;18.45;;;103.10;2227.20;;;;;;4923351;29;20068;-91
2021/01/25 10:20:15;;;;;;;31.85;19.33;;;103.20;2227.20;;;;;;4928696;29;20037;-93
2021/01/25 10:22:41;;;;;;;89.68;69.47;;;103.20;2227.20;;;;;;4916439;29;20545;-86
2021/01/25 10:25:08;;;;;;;21.77;18.17;;;103.30;2227.20;;;;;;4913573;29;20020;-91
2021/01/25 10:27:35;;;;;;;178.52;114.20;;;103.30;2227.20;;;;;;4916039;29;20029;-92
2021/01/25 10:30:01;;;;;;;364.02;223.77;;;128.00;2252.80;;;;;;4898280;29;20044;-91
2021/01/25 10:32:29;;;;;;;40.65;25.67;;;128.00;2252.80;;;;;;4915595;29;20020;-77
2021/01/25 10:34:55;;;;;;;43.38;31.70;;;128.10;2252.80;;;;;;4915685;29;20164;-87
2021/01/25 10:37:21;;;;;;;19.33;10.70;;;128.10;2252.80;;;;;;4915802;29;20123;-80
2021/01/25 10:39:47;;;;;;;18.67;9.82;;;128.20;2252.80;;;;;;4915462;29;20416;-93
2021/01/25 10:42:13;;;;;;;19.20;10.60;;;128.20;2252.80;;;;;;4917457;29;20028;-87
2021/01/25 10:44:38;;;;;;;36.35;29.17;;;128.30;2252.80;;;;;;4913393;29;20039;-86
2021/01/25 10:47:04;;;;;;;205.50;125.43;;;128.20;2252.80;;;;;;4909890;29;20024;-78
2021/01/25 10:49:30;;;;;;;61.88;43.60;;;128.30;2252.80;;;;;;4915800;29;20032;-85
2021/01/25 10:51:56;;;;;;;239.82;177.43;;;128.30;2252.80;;;;;;4917042;29;20040;-84
2021/01/25 10:54:24;;;;;;;47.92;39.88;;;128.40;2252.80;;;;;;4918723;29;20052;-91
2021/01/25 10:56:50;;;;;;;11.57;8.90;;;128.40;2201.60;;;;;;4921498;29;20558;-73
2021/01/25 10:59:16;;;;;;;7.07;5.10;;;128.50;2201.60;;;;;;4914463;29;20120;-83
2021/01/25 11:01:42;;;;;;;6.25;5.10;;;128.40;2252.80;;;;;;4915504;29;20047;-93
2021/01/25 11:04:08;;;;;;;16.02;14.43;;;128.40;2227.20;;;;;;4919359;29;20066;-93
2021/01/25 11:06:33;;;;;;;22.65;19.23;;;128.50;2252.80;;;;;;4920249;29;20059;-79
2021/01/25 11:08:59;;;;;;;31.90;28.77;;;128.50;2176.00;;;;;;4910961;29;20080;-72
2021/01/25 11:11:25;;;;;;;6.30;5.60;;;128.60;2201.60;;;;;;4915227;29;20036;-74
2021/01/25 11:13:50;;;;;;;5.30;4.47;;;128.70;2201.60;;;;;;4913251;29;20607;-76
2021/01/25 11:16:16;;;;;;;10.55;9.45;;;128.70;2176.00;;;;;;4914614;29;20127;-88
2021/01/25 11:18:42;;;;;;;8.07;7.15;;;128.80;2201.60;;;;;;4914684;29;20036;-76
2021/01/25 11:21:08;;;;;;;12.40;6.07;;;128.80;2176.00;;;;;;4913803;29;20059;-82
2021/01/25 11:23:33;;;;;;;7.28;4.03;;;128.90;2150.40;;;;;;4916806;29;20438;-89
2021/01/25 11:25:59;;;;;;;6.63;5.00;;;128.90;2124.80;;;;;;4914471;29;20028;-80
2021/01/25 11:28:25;;;;;;;5.47;3.65;;;128.80;2022.40;;;;;;4916767;29;20040;-74
2021/01/25 11:30:51;;;;;;;11.52;9.13;;;128.80;2099.20;;;;;;4913166;29;20112;-73
2021/01/25 11:33:17;;;;;;;5.55;3.65;;;128.80;2073.60;;;;;;4915420;29;20107;-73
2021/01/25 11:35:43;;;;;;;6.32;3.90;;;128.80;2201.60;;;;;;4914770;29;20039;-74
2021/01/25 11:38:08;;;;;;;5.47;3.70;;;128.80;2099.20;;;;;;4920791;29;20027;-81
2021/01/25 11:40:34;;;;;;;6.35;3.08;;;128.80;2099.20;;;;;;4912728;29;20032;-88
2021/01/25 11:43:00;;;;;;;5.43;3.72;;;128.90;2022.40;;;;;;4914787;29;20066;-75
2021/01/25 11:45:26;;;;;;;6.90;4.65;;;153.70;1996.80;;;;;;4914609;29;20106;-83
2021/01/25 11:47:57;;;;;;;6.15;4.45;;;153.80;2022.40;;;;;;4914610;29;20064;-84
2021/01/25 11:50:23;;;;;;;5.55;4.10;;;153.90;1792.00;;;;;;4908348;29;20246;-74
2021/01/25 11:52:49;;;;;;;6.40;4.40;;;154.00;1894.40;;;;;;4918330;29;20146;-77
2021/01/25 11:55:15;;;;;;;8.60;5.43;;;154.10;1817.60;;;;;;4913512;29;20087;-89
2021/01/25 11:57:41;;;;;;;8.73;5.55;;;154.20;1971.20;;;;;;4898327;29;20025;-72
2021/01/25 12:00:08;;;;;;;10.57;7.25;;;154.40;2073.60;;;;;;4920600;29;20375;-92
2021/01/25 12:02:34;;;;;;;12.15;9.43;;;179.20;2176.00;;;;;;4901755;29;20047;-79
2021/01/25 12:05:00;;;;;;;23.38;14.48;;;179.30;2099.20;;;;;;4917035;29;20025;-89
2021/01/25 12:07:26;;;;;;;15.48;11.52;;;179.20;2022.40;;;;;;4907204;29;20028;-91
2021/01/25 12:09:51;;;;;;;7.20;5.32;;;179.40;2150.40;;;;;;4911293;29;20059;-73
2021/01/25 12:12:17;;;;;;;7.38;4.78;;;179.40;2124.80;;;;;;4910272;29;20033;-85
2021/01/25 12:14:43;;;;;;;13.77;6.97;;;179.40;2048.00;;;;;;4915890;29;20566;-89
2021/01/25 12:17:08;;;;;;;27.33;13.95;;;179.40;1996.80;;;;;;4921480;29;20385;-83
2021/01/25 12:19:36;;;;;;;34.70;16.00;;;179.40;2022.40;;;;;;4919311;29;20039;-81
2021/01/25 12:22:02;;;;;;;26.40;13.80;;;179.50;2048.00;;;;;;4918990;29;20048;-83